Anthem Of The Seas — C6BI7 — position and weather

sailwx.info

Track history (hours):
 
Tides and Currents Weather Stations Pressure Air Temp Water Temp Dewpoint Dewpoint Depression Visibility Wind Speed Wind Dir Waves Ship Positions

Anthem Of The Seas

Last reported at 2019-Nov-18 20:30 UTC. Time now 2019-Nov-20 09:31 UTC.
Position N 39°30' W 073°53'.

Length 348 m; draft 8.8 m.

Type: Passenger vessel. MMSI: 311000274.

Date/timePositionNaut miles runAvg speedWind from/ knotsBaromVisibWave heightAir tempDewpointWater temp
2019-Nov-18 20:30N 39°30' W 073°53'1121.9
2019-Nov-18 20:00N 39°40' W 073°50'1121.3
2019-Nov-18 19:30N 39°51' W 073°49'5014.2
2019-Nov-18 15:59N 40°40' W 074°04'0 0.0
2019-Nov-18 15:29N 40°40' W 074°04'0 0.0
2019-Nov-18 12:59N 40°40' W 074°04'0 0.0
2019-Nov-18 12:29N 40°40' W 074°04'0 0.0
2019-Nov-18 10:59N 40°40' W 074°04'0 0.0
2019-Nov-18 04:41N 40°40' W 074°04'0 0.0
2019-Nov-18 03:50N 40°40' W 074°04'0 0.0
2019-Nov-18 02:59N 40°40' W 074°04'0 0.0
2019-Nov-18 01:59N 40°40' W 074°04'0 0.0
2019-Nov-17 03:53N 40°40' W 074°04'0 0.0
2019-Nov-17 01:29N 40°40' W 074°04'0 0.0
2019-Nov-16 21:29N 40°40' W 074°04'0 0.0
2019-Nov-16 20:29N 40°40' W 074°04'0 0.0
2019-Nov-16 19:29N 40°40' W 074°04'0 0.0
2019-Nov-16 18:59N 40°40' W 074°04'0 0.0
2019-Nov-16 18:29N 40°40' W 074°04'0 0.0
2019-Nov-16 17:29N 40°40' W 074°04'0 0.0
2019-Nov-16 16:59N 40°40' W 074°04'0 0.0
2019-Nov-16 15:59N 40°40' W 074°04'0 0.0
2019-Nov-16 15:29N 40°40' W 074°04'0 0.0
2019-Nov-16 07:29N 40°40' W 074°04'0 0.0
2019-Nov-16 06:29N 40°40' W 074°04'0 0.0
2019-Nov-16 03:29N 40°40' W 074°04'0 0.0
2019-Nov-16 02:59N 40°40' W 074°04'0 0.0
2019-Nov-16 02:29N 40°40' W 074°04'4812.1
2019-Nov-15 22:30N 39°55' W 073°42'  
2019-Nov-12 01:30N 28°23' W 080°32'5 3.0
2019-Nov-12 00:00N 28°25' W 080°37'0 0.0
2019-Nov-11 21:27N 28°25' W 080°37'0 0.0
2019-Nov-11 20:59N 28°25' W 080°37'0 0.0
2019-Nov-11 18:30N 28°25' W 080°37'0 0.0
2019-Nov-11 17:27N 28°25' W 080°37'0 0.0
2019-Nov-11 17:00N 28°25' W 080°37'1 2.8
2019-Nov-11 16:30N 28°25' W 080°35'75219.0
2019-Nov-10 01:00N 39°39' W 073°52'62 7.3
2019-Nov-09 16:30N 40°40' W 074°04'0 0.0
2019-Nov-09 15:30N 40°40' W 074°04'2 0.4
2019-Nov-09 10:30N 40°38' W 074°03'714.4
2019-Nov-09 10:00N 40°31' W 073°60'4810.8
2019-Nov-09 05:31N 39°45' W 073°42'  
Track history (hours):
 
Tides and Currents Weather Stations Pressure Air Temp Water Temp Dewpoint Dewpoint Depression Visibility Wind Speed Wind Dir Waves Ship Positions

Anthem Of The Seas

Last reported at 2019-Nov-18 20:30 UTC. Time now 2019-Nov-20 09:31 UTC.
Position N 39°30' W 073°53'.

Length 348 m; draft 8.8 m.

Type: Passenger vessel. MMSI: 311000274.

Date/timePositionNaut miles runAvg speedWind from/ knotsBaromVisibWave heightAir tempDewpointWater temp
2019-Nov-18 20:30N 39°30' W 073°53'1121.9
2019-Nov-18 20:00N 39°40' W 073°50'1121.3
2019-Nov-18 19:30N 39°51' W 073°49'5014.2
2019-Nov-18 15:59N 40°40' W 074°04'0 0.0
2019-Nov-18 15:29N 40°40' W 074°04'0 0.0
2019-Nov-18 12:59N 40°40' W 074°04'0 0.0
2019-Nov-18 12:29N 40°40' W 074°04'0 0.0
2019-Nov-18 10:59N 40°40' W 074°04'0 0.0
2019-Nov-18 04:41N 40°40' W 074°04'0 0.0
2019-Nov-18 03:50N 40°40' W 074°04'0 0.0
2019-Nov-18 02:59N 40°40' W 074°04'0 0.0
2019-Nov-18 01:59N 40°40' W 074°04'0 0.0
2019-Nov-17 03:53N 40°40' W 074°04'0 0.0
2019-Nov-17 01:29N 40°40' W 074°04'0 0.0
2019-Nov-16 21:29N 40°40' W 074°04'0 0.0
2019-Nov-16 20:29N 40°40' W 074°04'0 0.0
2019-Nov-16 19:29N 40°40' W 074°04'0 0.0
2019-Nov-16 18:59N 40°40' W 074°04'0 0.0
2019-Nov-16 18:29N 40°40' W 074°04'0 0.0
2019-Nov-16 17:29N 40°40' W 074°04'0 0.0
2019-Nov-16 16:59N 40°40' W 074°04'0 0.0
2019-Nov-16 15:59N 40°40' W 074°04'0 0.0
2019-Nov-16 15:29N 40°40' W 074°04'0 0.0
2019-Nov-16 07:29N 40°40' W 074°04'0 0.0
2019-Nov-16 06:29N 40°40' W 074°04'0 0.0
2019-Nov-16 03:29N 40°40' W 074°04'0 0.0
2019-Nov-16 02:59N 40°40' W 074°04'0 0.0
2019-Nov-16 02:29N 40°40' W 074°04'4812.1
2019-Nov-15 22:30N 39°55' W 073°42'  
2019-Nov-12 01:30N 28°23' W 080°32'5 3.0
2019-Nov-12 00:00N 28°25' W 080°37'0 0.0
2019-Nov-11 21:27N 28°25' W 080°37'0 0.0
2019-Nov-11 20:59N 28°25' W 080°37'0 0.0
2019-Nov-11 18:30N 28°25' W 080°37'0 0.0
2019-Nov-11 17:27N 28°25' W 080°37'0 0.0
2019-Nov-11 17:00N 28°25' W 080°37'1 2.8
2019-Nov-11 16:30N 28°25' W 080°35'75219.0
2019-Nov-10 01:00N 39°39' W 073°52'62 7.3
2019-Nov-09 16:30N 40°40' W 074°04'0 0.0
2019-Nov-09 15:30N 40°40' W 074°04'2 0.4
2019-Nov-09 10:30N 40°38' W 074°03'714.4
2019-Nov-09 10:00N 40°31' W 073°60'4810.8
2019-Nov-09 05:31N 39°45' W 073°42'  

Dump ship's entire track history